sensor_id;sensor_type;location;lat;lon;timestamp;P1;durP1;ratioP1;P2;durP2;ratioP2
4821;SDS011;2425;47.794;13.068;2023-07-16T00:00:53;7.13;;;3.73;;
4821;SDS011;2425;47.794;13.068;2023-07-16T00:03:19;6.13;;;3.70;;
4821;SDS011;2425;47.794;13.068;2023-07-16T00:05:50;10.03;;;3.20;;
4821;SDS011;2425;47.794;13.068;2023-07-16T00:08:17;4.93;;;3.23;;
4821;SDS011;2425;47.794;13.068;2023-07-16T00:10:43;4.50;;;3.50;;
4821;SDS011;2425;47.794;13.068;2023-07-16T00:13:10;7.40;;;3.67;;
4821;SDS011;2425;47.794;13.068;2023-07-16T00:15:37;5.53;;;3.00;;
4821;SDS011;2425;47.794;13.068;2023-07-16T00:18:04;5.00;;;3.37;;
4821;SDS011;2425;47.794;13.068;2023-07-16T00:20:31;4.83;;;3.43;;
4821;SDS011;2425;47.794;13.068;2023-07-16T00:22:59;4.67;;;3.00;;
4821;SDS011;2425;47.794;13.068;2023-07-16T00:25:26;5.00;;;3.23;;
4821;SDS011;2425;47.794;13.068;2023-07-16T00:27:53;4.00;;;3.47;;
4821;SDS011;2425;47.794;13.068;2023-07-16T00:30:19;6.77;;;3.43;;
4821;SDS011;2425;47.794;13.068;2023-07-16T00:32:46;4.27;;;3.20;;
4821;SDS011;2425;47.794;13.068;2023-07-16T00:35:13;5.47;;;3.47;;
4821;SDS011;2425;47.794;13.068;2023-07-16T00:37:39;6.03;;;3.10;;
4821;SDS011;2425;47.794;13.068;2023-07-16T00:40:08;4.00;;;2.80;;
4821;SDS011;2425;47.794;13.068;2023-07-16T00:42:35;3.70;;;3.30;;
4821;SDS011;2425;47.794;13.068;2023-07-16T00:45:02;4.13;;;3.00;;
4821;SDS011;2425;47.794;13.068;2023-07-16T00:47:29;3.47;;;2.80;;
4821;SDS011;2425;47.794;13.068;2023-07-16T00:49:56;3.63;;;3.33;;
4821;SDS011;2425;47.794;13.068;2023-07-16T00:52:24;3.17;;;2.90;;
4821;SDS011;2425;47.794;13.068;2023-07-16T00:54:50;4.60;;;3.23;;
4821;SDS011;2425;47.794;13.068;2023-07-16T00:57:18;3.10;;;2.80;;
4821;SDS011;2425;47.794;13.068;2023-07-16T00:59:45;3.23;;;2.70;;
4821;SDS011;2425;47.794;13.068;2023-07-16T01:02:12;2.83;;;2.73;;
4821;SDS011;2425;47.794;13.068;2023-07-16T01:04:38;3.00;;;2.80;;
4821;SDS011;2425;47.794;13.068;2023-07-16T01:07:06;5.60;;;2.70;;
4821;SDS011;2425;47.794;13.068;2023-07-16T01:09:34;5.67;;;2.90;;
4821;SDS011;2425;47.794;13.068;2023-07-16T01:12:03;2.70;;;2.50;;
4821;SDS011;2425;47.794;13.068;2023-07-16T01:14:33;5.00;;;3.10;;
4821;SDS011;2425;47.794;13.068;2023-07-16T01:17:02;3.20;;;2.97;;
4821;SDS011;2425;47.794;13.068;2023-07-16T01:19:29;5.47;;;3.20;;
4821;SDS011;2425;47.794;13.068;2023-07-16T01:21:58;2.83;;;2.63;;
4821;SDS011;2425;47.794;13.068;2023-07-16T01:24:52;3.90;;;3.13;;
4821;SDS011;2425;47.794;13.068;2023-07-16T01:27:42;3.37;;;3.07;;
4821;SDS011;2425;47.794;13.068;2023-07-16T01:30:18;3.20;;;2.90;;
4821;SDS011;2425;47.794;13.068;2023-07-16T01:32:45;3.40;;;3.10;;
4821;SDS011;2425;47.794;13.068;2023-07-16T01:35:12;4.93;;;2.83;;
4821;SDS011;2425;47.794;13.068;2023-07-16T01:37:40;3.30;;;2.90;;
4821;SDS011;2425;47.794;13.068;2023-07-16T01:40:08;2.80;;;2.50;;
4821;SDS011;2425;47.794;13.068;2023-07-16T01:42:36;3.60;;;2.65;;
4821;SDS011;2425;47.794;13.068;2023-07-16T01:45:03;4.77;;;2.40;;
4821;SDS011;2425;47.794;13.068;2023-07-16T01:47:33;2.60;;;2.50;;
4821;SDS011;2425;47.794;13.068;2023-07-16T01:50:06;2.60;;;2.40;;
4821;SDS011;2425;47.794;13.068;2023-07-16T01:52:33;3.90;;;2.50;;
4821;SDS011;2425;47.794;13.068;2023-07-16T01:55:00;6.47;;;3.00;;
4821;SDS011;2425;47.794;13.068;2023-07-16T01:57:27;2.63;;;2.50;;
4821;SDS011;2425;47.794;13.068;2023-07-16T01:59:53;5.00;;;2.80;;
4821;SDS011;2425;47.794;13.068;2023-07-16T02:02:20;2.40;;;2.30;;
4821;SDS011;2425;47.794;13.068;2023-07-16T02:04:48;2.70;;;2.50;;
4821;SDS011;2425;47.794;13.068;2023-07-16T02:07:15;2.60;;;2.40;;
4821;SDS011;2425;47.794;13.068;2023-07-16T02:09:42;2.83;;;2.63;;
4821;SDS011;2425;47.794;13.068;2023-07-16T02:12:08;3.10;;;2.90;;
4821;SDS011;2425;47.794;13.068;2023-07-16T02:14:35;2.97;;;2.40;;
4821;SDS011;2425;47.794;13.068;2023-07-16T02:17:02;2.70;;;2.60;;
4821;SDS011;2425;47.794;13.068;2023-07-16T02:19:28;3.00;;;2.67;;
4821;SDS011;2425;47.794;13.068;2023-07-16T02:21:56;3.13;;;2.90;;
4821;SDS011;2425;47.794;13.068;2023-07-16T02:24:23;5.70;;;2.27;;
4821;SDS011;2425;47.794;13.068;2023-07-16T02:26:50;2.70;;;2.50;;
4821;SDS011;2425;47.794;13.068;2023-07-16T02:29:16;5.10;;;2.20;;
4821;SDS011;2425;47.794;13.068;2023-07-16T02:31:43;4.93;;;2.40;;
4821;SDS011;2425;47.794;13.068;2023-07-16T02:34:11;4.30;;;2.50;;
4821;SDS011;2425;47.794;13.068;2023-07-16T02:36:38;3.90;;;2.53;;
4821;SDS011;2425;47.794;13.068;2023-07-16T02:39:06;5.00;;;2.50;;
4821;SDS011;2425;47.794;13.068;2023-07-16T02:41:33;2.70;;;2.43;;
4821;SDS011;2425;47.794;13.068;2023-07-16T02:44:00;3.20;;;2.50;;
4821;SDS011;2425;47.794;13.068;2023-07-16T02:46:27;2.80;;;2.60;;
4821;SDS011;2425;47.794;13.068;2023-07-16T02:48:53;2.50;;;2.40;;
4821;SDS011;2425;47.794;13.068;2023-07-16T02:51:20;2.40;;;2.30;;
4821;SDS011;2425;47.794;13.068;2023-07-16T02:53:47;2.53;;;2.37;;
4821;SDS011;2425;47.794;13.068;2023-07-16T02:56:15;2.13;;;2.03;;
4821;SDS011;2425;47.794;13.068;2023-07-16T02:58:42;1.88;;;1.80;;
4821;SDS011;2425;47.794;13.068;2023-07-16T03:01:09;2.30;;;2.10;;
4821;SDS011;2425;47.794;13.068;2023-07-16T03:03:36;2.30;;;2.20;;
4821;SDS011;2425;47.794;13.068;2023-07-16T03:06:02;2.70;;;2.50;;
4821;SDS011;2425;47.794;13.068;2023-07-16T03:08:29;2.63;;;2.07;;
4821;SDS011;2425;47.794;13.068;2023-07-16T03:10:56;5.03;;;2.53;;
4821;SDS011;2425;47.794;13.068;2023-07-16T03:13:25;2.47;;;2.37;;
4821;SDS011;2425;47.794;13.068;2023-07-16T03:15:51;2.30;;;2.20;;
4821;SDS011;2425;47.794;13.068;2023-07-16T03:18:18;2.73;;;2.53;;
4821;SDS011;2425;47.794;13.068;2023-07-16T03:20:45;2.40;;;2.17;;
4821;SDS011;2425;47.794;13.068;2023-07-16T03:23:12;2.40;;;2.30;;
4821;SDS011;2425;47.794;13.068;2023-07-16T03:25:39;2.23;;;2.13;;
4821;SDS011;2425;47.794;13.068;2023-07-16T03:28:06;4.30;;;2.40;;
4821;SDS011;2425;47.794;13.068;2023-07-16T03:30:34;2.00;;;1.90;;
4821;SDS011;2425;47.794;13.068;2023-07-16T03:33:02;2.77;;;2.40;;
4821;SDS011;2425;47.794;13.068;2023-07-16T03:35:29;2.40;;;2.30;;
4821;SDS011;2425;47.794;13.068;2023-07-16T03:37:56;2.20;;;2.10;;
4821;SDS011;2425;47.794;13.068;2023-07-16T03:40:23;2.30;;;2.20;;
4821;SDS011;2425;47.794;13.068;2023-07-16T03:42:51;2.50;;;2.40;;
4821;SDS011;2425;47.794;13.068;2023-07-16T03:45:21;2.40;;;2.20;;
4821;SDS011;2425;47.794;13.068;2023-07-16T03:47:49;2.43;;;2.33;;
4821;SDS011;2425;47.794;13.068;2023-07-16T03:50:16;2.00;;;1.90;;
4821;SDS011;2425;47.794;13.068;2023-07-16T03:52:43;2.00;;;1.90;;
4821;SDS011;2425;47.794;13.068;2023-07-16T03:55:10;3.13;;;1.90;;
4821;SDS011;2425;47.794;13.068;2023-07-16T03:57:36;2.17;;;2.13;;
4821;SDS011;2425;47.794;13.068;2023-07-16T04:00:03;2.80;;;2.37;;
4821;SDS011;2425;47.794;13.068;2023-07-16T04:02:36;2.20;;;2.10;;
4821;SDS011;2425;47.794;13.068;2023-07-16T04:05:17;8.20;;;2.10;;
4821;SDS011;2425;47.794;13.068;2023-07-16T04:07:43;1.93;;;1.93;;
4821;SDS011;2425;47.794;13.068;2023-07-16T04:10:10;2.00;;;2.00;;
4821;SDS011;2425;47.794;13.068;2023-07-16T04:12:37;2.20;;;2.10;;
4821;SDS011;2425;47.794;13.068;2023-07-16T04:15:06;2.63;;;2.40;;
4821;SDS011;2425;47.794;13.068;2023-07-16T04:17:34;2.23;;;2.10;;
4821;SDS011;2425;47.794;13.068;2023-07-16T04:20:01;2.10;;;2.00;;
4821;SDS011;2425;47.794;13.068;2023-07-16T04:22:32;2.40;;;2.30;;
4821;SDS011;2425;47.794;13.068;2023-07-16T04:24:59;2.10;;;2.00;;
4821;SDS011;2425;47.794;13.068;2023-07-16T04:27:26;1.87;;;1.80;;
4821;SDS011;2425;47.794;13.068;2023-07-16T04:29:54;2.33;;;2.13;;
4821;SDS011;2425;47.794;13.068;2023-07-16T04:32:21;2.40;;;2.20;;
4821;SDS011;2425;47.794;13.068;2023-07-16T04:34:49;2.47;;;2.03;;
4821;SDS011;2425;47.794;13.068;2023-07-16T04:37:18;3.27;;;2.30;;
4821;SDS011;2425;47.794;13.068;2023-07-16T04:39:47;2.40;;;2.20;;
4821;SDS011;2425;47.794;13.068;2023-07-16T04:42:13;2.47;;;2.27;;
4821;SDS011;2425;47.794;13.068;2023-07-16T04:44:41;12.23;;;2.90;;
4821;SDS011;2425;47.794;13.068;2023-07-16T04:47:08;8.77;;;4.23;;
4821;SDS011;2425;47.794;13.068;2023-07-16T04:49:35;11.50;;;4.03;;
4821;SDS011;2425;47.794;13.068;2023-07-16T04:52:02;23.57;;;4.60;;
4821;SDS011;2425;47.794;13.068;2023-07-16T04:54:29;8.07;;;4.00;;
4821;SDS011;2425;47.794;13.068;2023-07-16T04:56:58;9.50;;;4.10;;
4821;SDS011;2425;47.794;13.068;2023-07-16T04:59:25;14.13;;;4.30;;
4821;SDS011;2425;47.794;13.068;2023-07-16T05:01:51;11.27;;;4.57;;
4821;SDS011;2425;47.794;13.068;2023-07-16T05:04:18;11.90;;;3.57;;
4821;SDS011;2425;47.794;13.068;2023-07-16T05:06:45;7.67;;;5.10;;
4821;SDS011;2425;47.794;13.068;2023-07-16T05:09:11;10.10;;;3.90;;
4821;SDS011;2425;47.794;13.068;2023-07-16T05:11:38;10.70;;;3.93;;
4821;SDS011;2425;47.794;13.068;2023-07-16T05:14:06;26.63;;;4.43;;
4821;SDS011;2425;47.794;13.068;2023-07-16T05:16:33;21.67;;;4.33;;
4821;SDS011;2425;47.794;13.068;2023-07-16T05:18:59;20.33;;;4.37;;
4821;SDS011;2425;47.794;13.068;2023-07-16T05:21:26;21.40;;;4.67;;
4821;SDS011;2425;47.794;13.068;2023-07-16T05:23:53;22.63;;;4.50;;
4821;SDS011;2425;47.794;13.068;2023-07-16T05:26:19;28.67;;;4.70;;
4821;SDS011;2425;47.794;13.068;2023-07-16T05:28:46;17.63;;;4.57;;
4821;SDS011;2425;47.794;13.068;2023-07-16T05:31:14;23.77;;;4.37;;
4821;SDS011;2425;47.794;13.068;2023-07-16T05:33:41;7.80;;;4.10;;
4821;SDS011;2425;47.794;13.068;2023-07-16T05:36:07;14.33;;;4.00;;
4821;SDS011;2425;47.794;13.068;2023-07-16T05:38:34;12.60;;;4.37;;
4821;SDS011;2425;47.794;13.068;2023-07-16T05:41:01;9.53;;;3.50;;
4821;SDS011;2425;47.794;13.068;2023-07-16T05:43:28;8.63;;;4.37;;
4821;SDS011;2425;47.794;13.068;2023-07-16T05:45:55;12.43;;;4.47;;
4821;SDS011;2425;47.794;13.068;2023-07-16T05:48:23;9.70;;;3.43;;
4821;SDS011;2425;47.794;13.068;2023-07-16T05:50:50;6.40;;;3.43;;
4821;SDS011;2425;47.794;13.068;2023-07-16T05:53:17;7.70;;;3.87;;
4821;SDS011;2425;47.794;13.068;2023-07-16T05:55:43;3.50;;;3.20;;
4821;SDS011;2425;47.794;13.068;2023-07-16T05:58:10;11.03;;;3.37;;
4821;SDS011;2425;47.794;13.068;2023-07-16T06:00:37;6.20;;;3.60;;
4821;SDS011;2425;47.794;13.068;2023-07-16T06:03:04;9.43;;;4.03;;
4821;SDS011;2425;47.794;13.068;2023-07-16T06:05:32;4.70;;;3.30;;
4821;SDS011;2425;47.794;13.068;2023-07-16T06:07:59;12.93;;;3.47;;
4821;SDS011;2425;47.794;13.068;2023-07-16T06:10:26;7.37;;;3.83;;
4821;SDS011;2425;47.794;13.068;2023-07-16T06:12:53;6.97;;;3.30;;
4821;SDS011;2425;47.794;13.068;2023-07-16T06:15:20;3.00;;;2.77;;
4821;SDS011;2425;47.794;13.068;2023-07-16T06:17:46;6.83;;;3.47;;
4821;SDS011;2425;47.794;13.068;2023-07-16T06:20:13;3.17;;;2.90;;
4821;SDS011;2425;47.794;13.068;2023-07-16T06:22:41;3.27;;;3.00;;
4821;SDS011;2425;47.794;13.068;2023-07-16T06:25:08;3.10;;;2.90;;
4821;SDS011;2425;47.794;13.068;2023-07-16T06:27:35;4.00;;;2.43;;
4821;SDS011;2425;47.794;13.068;2023-07-16T06:30:02;3.00;;;2.80;;
4821;SDS011;2425;47.794;13.068;2023-07-16T06:32:30;4.10;;;2.70;;
4821;SDS011;2425;47.794;13.068;2023-07-16T06:34:57;3.57;;;2.90;;
4821;SDS011;2425;47.794;13.068;2023-07-16T06:37:24;4.03;;;3.63;;
4821;SDS011;2425;47.794;13.068;2023-07-16T06:39:52;4.10;;;3.70;;
4821;SDS011;2425;47.794;13.068;2023-07-16T06:42:19;3.67;;;3.33;;
4821;SDS011;2425;47.794;13.068;2023-07-16T06:44:46;3.77;;;3.43;;
4821;SDS011;2425;47.794;13.068;2023-07-16T06:47:13;5.40;;;2.97;;
4821;SDS011;2425;47.794;13.068;2023-07-16T06:49:40;3.13;;;2.93;;
4821;SDS011;2425;47.794;13.068;2023-07-16T06:52:07;5.13;;;2.90;;
4821;SDS011;2425;47.794;13.068;2023-07-16T06:54:34;3.10;;;3.00;;
4821;SDS011;2425;47.794;13.068;2023-07-16T06:57:03;3.53;;;3.33;;
4821;SDS011;2425;47.794;13.068;2023-07-16T06:59:30;3.30;;;3.00;;
4821;SDS011;2425;47.794;13.068;2023-07-16T07:01:57;4.20;;;3.27;;
4821;SDS011;2425;47.794;13.068;2023-07-16T07:04:23;3.30;;;3.07;;
4821;SDS011;2425;47.794;13.068;2023-07-16T07:06:50;2.93;;;2.83;;
4821;SDS011;2425;47.794;13.068;2023-07-16T07:09:17;4.87;;;2.90;;
4821;SDS011;2425;47.794;13.068;2023-07-16T07:11:44;3.60;;;3.03;;
4821;SDS011;2425;47.794;13.068;2023-07-16T07:14:27;2.87;;;2.77;;
4821;SDS011;2425;47.794;13.068;2023-07-16T07:16:54;3.67;;;2.60;;
4821;SDS011;2425;47.794;13.068;2023-07-16T07:19:25;4.40;;;3.17;;
4821;SDS011;2425;47.794;13.068;2023-07-16T07:22:02;4.67;;;3.10;;
4821;SDS011;2425;47.794;13.068;2023-07-16T07:24:29;6.13;;;3.00;;
4821;SDS011;2425;47.794;13.068;2023-07-16T07:26:55;3.53;;;3.23;;
4821;SDS011;2425;47.794;13.068;2023-07-16T07:29:22;4.03;;;3.73;;
4821;SDS011;2425;47.794;13.068;2023-07-16T07:31:50;4.20;;;3.43;;
4821;SDS011;2425;47.794;13.068;2023-07-16T07:34:17;3.87;;;3.57;;
4821;SDS011;2425;47.794;13.068;2023-07-16T07:36:43;3.23;;;2.97;;
4821;SDS011;2425;47.794;13.068;2023-07-16T07:39:10;3.70;;;3.27;;
4821;SDS011;2425;47.794;13.068;2023-07-16T07:41:38;3.87;;;3.53;;
4821;SDS011;2425;47.794;13.068;2023-07-16T07:44:05;2.90;;;2.70;;
4821;SDS011;2425;47.794;13.068;2023-07-16T07:46:31;14.13;;;3.30;;
4821;SDS011;2425;47.794;13.068;2023-07-16T07:48:59;3.97;;;3.17;;
4821;SDS011;2425;47.794;13.068;2023-07-16T07:51:26;7.17;;;3.70;;
4821;SDS011;2425;47.794;13.068;2023-07-16T07:53:53;4.50;;;4.10;;
4821;SDS011;2425;47.794;13.068;2023-07-16T07:56:20;3.23;;;3.13;;
4821;SDS011;2425;47.794;13.068;2023-07-16T07:58:46;8.73;;;3.20;;
4821;SDS011;2425;47.794;13.068;2023-07-16T08:01:13;4.30;;;3.07;;
4821;SDS011;2425;47.794;13.068;2023-07-16T08:03:40;3.20;;;3.00;;
4821;SDS011;2425;47.794;13.068;2023-07-16T08:06:08;3.30;;;3.10;;
4821;SDS011;2425;47.794;13.068;2023-07-16T08:08:37;3.30;;;3.00;;
4821;SDS011;2425;47.794;13.068;2023-07-16T08:11:03;2.87;;;2.77;;
4821;SDS011;2425;47.794;13.068;2023-07-16T08:13:30;2.70;;;2.60;;
4821;SDS011;2425;47.794;13.068;2023-07-16T08:15:57;3.17;;;2.97;;
4821;SDS011;2425;47.794;13.068;2023-07-16T08:18:24;3.33;;;3.03;;
4821;SDS011;2425;47.794;13.068;2023-07-16T08:20:53;3.13;;;3.03;;
4821;SDS011;2425;47.794;13.068;2023-07-16T08:23:21;3.40;;;3.10;;
4821;SDS011;2425;47.794;13.068;2023-07-16T08:25:48;3.60;;;3.30;;
4821;SDS011;2425;47.794;13.068;2023-07-16T08:28:15;7.63;;;3.30;;
4821;SDS011;2425;47.794;13.068;2023-07-16T08:30:42;3.40;;;2.70;;
4821;SDS011;2425;47.794;13.068;2023-07-16T08:33:09;3.30;;;3.10;;
4821;SDS011;2425;47.794;13.068;2023-07-16T08:35:37;5.90;;;3.07;;
4821;SDS011;2425;47.794;13.068;2023-07-16T08:38:03;3.13;;;3.03;;
4821;SDS011;2425;47.794;13.068;2023-07-16T08:40:36;4.67;;;3.30;;
4821;SDS011;2425;47.794;13.068;2023-07-16T08:43:02;3.63;;;2.97;;
4821;SDS011;2425;47.794;13.068;2023-07-16T08:45:29;5.77;;;3.37;;
4821;SDS011;2425;47.794;13.068;2023-07-16T08:47:56;3.33;;;3.03;;
4821;SDS011;2425;47.794;13.068;2023-07-16T08:50:23;5.70;;;3.00;;
4821;SDS011;2425;47.794;13.068;2023-07-16T08:52:50;3.33;;;2.60;;
4821;SDS011;2425;47.794;13.068;2023-07-16T08:55:17;3.43;;;3.00;;
4821;SDS011;2425;47.794;13.068;2023-07-16T08:57:46;3.47;;;2.97;;
4821;SDS011;2425;47.794;13.068;2023-07-16T09:00:13;3.97;;;3.13;;
4821;SDS011;2425;47.794;13.068;2023-07-16T09:02:41;4.47;;;4.17;;
4821;SDS011;2425;47.794;13.068;2023-07-16T09:05:08;4.87;;;4.40;;
4821;SDS011;2425;47.794;13.068;2023-07-16T09:07:35;4.57;;;4.27;;
4821;SDS011;2425;47.794;13.068;2023-07-16T09:10:02;4.40;;;4.10;;
4821;SDS011;2425;47.794;13.068;2023-07-16T09:12:30;3.33;;;3.07;;
4821;SDS011;2425;47.794;13.068;2023-07-16T09:14:58;3.93;;;3.67;;
4821;SDS011;2425;47.794;13.068;2023-07-16T09:17:24;3.17;;;2.90;;
4821;SDS011;2425;47.794;13.068;2023-07-16T09:19:50;3.83;;;3.43;;
4821;SDS011;2425;47.794;13.068;2023-07-16T09:22:17;3.17;;;2.97;;
4821;SDS011;2425;47.794;13.068;2023-07-16T09:24:45;5.63;;;3.53;;
4821;SDS011;2425;47.794;13.068;2023-07-16T09:27:12;3.03;;;2.93;;
4821;SDS011;2425;47.794;13.068;2023-07-16T09:29:39;3.50;;;3.30;;
4821;SDS011;2425;47.794;13.068;2023-07-16T09:32:07;4.83;;;3.40;;
4821;SDS011;2425;47.794;13.068;2023-07-16T09:34:34;3.43;;;2.90;;
4821;SDS011;2425;47.794;13.068;2023-07-16T09:37:01;6.10;;;2.80;;
4821;SDS011;2425;47.794;13.068;2023-07-16T09:39:28;2.90;;;2.70;;
4821;SDS011;2425;47.794;13.068;2023-07-16T09:41:55;2.80;;;2.70;;
4821;SDS011;2425;47.794;13.068;2023-07-16T09:44:22;2.80;;;2.67;;
4821;SDS011;2425;47.794;13.068;2023-07-16T09:46:49;2.43;;;2.33;;
4821;SDS011;2425;47.794;13.068;2023-07-16T09:49:17;3.70;;;3.17;;
4821;SDS011;2425;47.794;13.068;2023-07-16T09:51:44;2.97;;;2.77;;
4821;SDS011;2425;47.794;13.068;2023-07-16T09:54:12;3.00;;;2.80;;
4821;SDS011;2425;47.794;13.068;2023-07-16T09:56:40;2.90;;;2.70;;
4821;SDS011;2425;47.794;13.068;2023-07-16T09:59:10;3.20;;;3.00;;
4821;SDS011;2425;47.794;13.068;2023-07-16T10:01:39;2.63;;;2.50;;
4821;SDS011;2425;47.794;13.068;2023-07-16T10:04:11;3.10;;;2.90;;
4821;SDS011;2425;47.794;13.068;2023-07-16T10:06:49;3.50;;;2.50;;
4821;SDS011;2425;47.794;13.068;2023-07-16T10:09:34;2.40;;;2.30;;
4821;SDS011;2425;47.794;13.068;2023-07-16T10:12:12;2.73;;;2.63;;
4821;SDS011;2425;47.794;13.068;2023-07-16T10:14:41;2.90;;;2.73;;
4821;SDS011;2425;47.794;13.068;2023-07-16T10:17:11;2.10;;;2.00;;
4821;SDS011;2425;47.794;13.068;2023-07-16T10:19:49;2.20;;;2.20;;
4821;SDS011;2425;47.794;13.068;2023-07-16T10:22:18;4.00;;;3.80;;
4821;SDS011;2425;47.794;13.068;2023-07-16T10:24:51;3.60;;;3.30;;
4821;SDS011;2425;47.794;13.068;2023-07-16T10:27:26;3.43;;;3.23;;
4821;SDS011;2425;47.794;13.068;2023-07-16T10:29:53;2.60;;;2.50;;
4821;SDS011;2425;47.794;13.068;2023-07-16T10:32:20;2.60;;;2.50;;
4821;SDS011;2425;47.794;13.068;2023-07-16T10:34:47;2.87;;;2.77;;
4821;SDS011;2425;47.794;13.068;2023-07-16T10:37:14;3.10;;;2.90;;
4821;SDS011;2425;47.794;13.068;2023-07-16T10:39:46;11.33;;;3.70;;
4821;SDS011;2425;47.794;13.068;2023-07-16T10:42:15;5.00;;;2.90;;
4821;SDS011;2425;47.794;13.068;2023-07-16T10:44:42;3.13;;;2.93;;
4821;SDS011;2425;47.794;13.068;2023-07-16T10:47:08;3.30;;;3.20;;
4821;SDS011;2425;47.794;13.068;2023-07-16T10:49:35;3.23;;;3.03;;
4821;SDS011;2425;47.794;13.068;2023-07-16T10:52:02;3.00;;;2.90;;
4821;SDS011;2425;47.794;13.068;2023-07-16T10:54:29;2.93;;;2.73;;
4821;SDS011;2425;47.794;13.068;2023-07-16T10:56:57;3.70;;;3.40;;
4821;SDS011;2425;47.794;13.068;2023-07-16T10:59:24;3.80;;;3.50;;
4821;SDS011;2425;47.794;13.068;2023-07-16T11:01:51;3.07;;;2.87;;
4821;SDS011;2425;47.794;13.068;2023-07-16T11:04:17;3.00;;;2.80;;
4821;SDS011;2425;47.794;13.068;2023-07-16T11:06:44;2.87;;;2.77;;
4821;SDS011;2425;47.794;13.068;2023-07-16T11:09:11;2.70;;;2.50;;
4821;SDS011;2425;47.794;13.068;2023-07-16T11:11:38;2.73;;;2.63;;
4821;SDS011;2425;47.794;13.068;2023-07-16T11:14:07;2.70;;;2.50;;
4821;SDS011;2425;47.794;13.068;2023-07-16T11:16:34;2.80;;;2.60;;
4821;SDS011;2425;47.794;13.068;2023-07-16T11:19:03;2.90;;;2.70;;
4821;SDS011;2425;47.794;13.068;2023-07-16T11:21:30;2.80;;;2.60;;
4821;SDS011;2425;47.794;13.068;2023-07-16T11:24:06;4.97;;;3.00;;
4821;SDS011;2425;47.794;13.068;2023-07-16T11:26:34;2.50;;;2.40;;
4821;SDS011;2425;47.794;13.068;2023-07-16T11:29:00;2.90;;;2.70;;
4821;SDS011;2425;47.794;13.068;2023-07-16T11:31:29;2.63;;;2.43;;
4821;SDS011;2425;47.794;13.068;2023-07-16T11:34:04;3.00;;;2.90;;
4821;SDS011;2425;47.794;13.068;2023-07-16T11:36:32;2.90;;;2.70;;
4821;SDS011;2425;47.794;13.068;2023-07-16T11:38:59;2.63;;;2.40;;
4821;SDS011;2425;47.794;13.068;2023-07-16T11:41:26;2.83;;;2.50;;
4821;SDS011;2425;47.794;13.068;2023-07-16T11:43:52;2.33;;;2.23;;
4821;SDS011;2425;47.794;13.068;2023-07-16T11:46:19;2.67;;;2.53;;
4821;SDS011;2425;47.794;13.068;2023-07-16T11:48:47;2.40;;;2.30;;
4821;SDS011;2425;47.794;13.068;2023-07-16T11:51:14;2.60;;;2.40;;
4821;SDS011;2425;47.794;13.068;2023-07-16T11:53:40;2.03;;;1.93;;
4821;SDS011;2425;47.794;13.068;2023-07-16T11:56:07;2.63;;;2.50;;
4821;SDS011;2425;47.794;13.068;2023-07-16T11:58:34;2.30;;;2.20;;
4821;SDS011;2425;47.794;13.068;2023-07-16T12:01:01;2.43;;;2.33;;
4821;SDS011;2425;47.794;13.068;2023-07-16T12:03:27;2.30;;;2.20;;
4821;SDS011;2425;47.794;13.068;2023-07-16T12:05:56;3.00;;;2.90;;
4821;SDS011;2425;47.794;13.068;2023-07-16T12:08:22;2.93;;;2.73;;
4821;SDS011;2425;47.794;13.068;2023-07-16T12:10:49;2.87;;;2.77;;
4821;SDS011;2425;47.794;13.068;2023-07-16T12:13:16;3.00;;;2.80;;
4821;SDS011;2425;47.794;13.068;2023-07-16T12:15:43;3.50;;;2.90;;
4821;SDS011;2425;47.794;13.068;2023-07-16T12:18:09;2.43;;;2.33;;
4821;SDS011;2425;47.794;13.068;2023-07-16T12:20:36;2.80;;;2.60;;
4821;SDS011;2425;47.794;13.068;2023-07-16T12:23:04;2.40;;;2.30;;
4821;SDS011;2425;47.794;13.068;2023-07-16T12:25:31;2.20;;;2.10;;
4821;SDS011;2425;47.794;13.068;2023-07-16T12:27:58;2.00;;;2.00;;
4821;SDS011;2425;47.794;13.068;2023-07-16T12:30:24;2.43;;;2.33;;
4821;SDS011;2425;47.794;13.068;2023-07-16T12:32:51;2.10;;;1.93;;
4821;SDS011;2425;47.794;13.068;2023-07-16T12:35:21;2.90;;;2.23;;
4821;SDS011;2425;47.794;13.068;2023-07-16T12:37:48;2.43;;;2.33;;
4821;SDS011;2425;47.794;13.068;2023-07-16T12:40:16;2.33;;;2.23;;
4821;SDS011;2425;47.794;13.068;2023-07-16T12:42:43;2.60;;;2.50;;
4821;SDS011;2425;47.794;13.068;2023-07-16T12:45:10;3.40;;;2.25;;
4821;SDS011;2425;47.794;13.068;2023-07-16T12:47:36;4.00;;;2.83;;
4821;SDS011;2425;47.794;13.068;2023-07-16T12:50:04;2.97;;;2.87;;
4821;SDS011;2425;47.794;13.068;2023-07-16T12:52:31;3.00;;;2.80;;
4821;SDS011;2425;47.794;13.068;2023-07-16T12:54:58;4.33;;;2.57;;
4821;SDS011;2425;47.794;13.068;2023-07-16T12:57:27;4.30;;;2.90;;
4821;SDS011;2425;47.794;13.068;2023-07-16T12:59:54;3.90;;;2.60;;
4821;SDS011;2425;47.794;13.068;2023-07-16T13:02:22;2.73;;;2.53;;
4821;SDS011;2425;47.794;13.068;2023-07-16T13:04:49;9.63;;;2.23;;
4821;SDS011;2425;47.794;13.068;2023-07-16T13:07:15;2.50;;;2.30;;
4821;SDS011;2425;47.794;13.068;2023-07-16T13:09:42;2.30;;;2.30;;
4821;SDS011;2425;47.794;13.068;2023-07-16T13:12:09;3.80;;;2.27;;
4821;SDS011;2425;47.794;13.068;2023-07-16T13:14:37;3.17;;;2.40;;
4821;SDS011;2425;47.794;13.068;2023-07-16T13:17:03;2.07;;;1.97;;
4821;SDS011;2425;47.794;13.068;2023-07-16T13:19:31;6.43;;;2.00;;
4821;SDS011;2425;47.794;13.068;2023-07-16T13:21:57;2.33;;;2.23;;
4821;SDS011;2425;47.794;13.068;2023-07-16T13:24:24;2.30;;;2.23;;
4821;SDS011;2425;47.794;13.068;2023-07-16T13:26:51;2.13;;;2.03;;
4821;SDS011;2425;47.794;13.068;2023-07-16T13:29:18;1.70;;;1.70;;
4821;SDS011;2425;47.794;13.068;2023-07-16T13:31:46;2.40;;;2.30;;
4821;SDS011;2425;47.794;13.068;2023-07-16T13:34:13;2.50;;;2.40;;
4821;SDS011;2425;47.794;13.068;2023-07-16T13:36:39;2.20;;;2.20;;
4821;SDS011;2425;47.794;13.068;2023-07-16T13:39:06;2.53;;;2.30;;
4821;SDS011;2425;47.794;13.068;2023-07-16T13:41:33;2.13;;;2.03;;
4821;SDS011;2425;47.794;13.068;2023-07-16T13:44:00;3.30;;;2.27;;
4821;SDS011;2425;47.794;13.068;2023-07-16T13:46:26;1.97;;;1.93;;
4821;SDS011;2425;47.794;13.068;2023-07-16T13:48:54;1.93;;;1.93;;
4821;SDS011;2425;47.794;13.068;2023-07-16T13:51:22;2.20;;;2.10;;
4821;SDS011;2425;47.794;13.068;2023-07-16T13:53:49;2.00;;;1.80;;
4821;SDS011;2425;47.794;13.068;2023-07-16T13:56:15;2.27;;;2.07;;
4821;SDS011;2425;47.794;13.068;2023-07-16T13:58:45;1.90;;;1.90;;
4821;SDS011;2425;47.794;13.068;2023-07-16T14:01:12;2.10;;;2.10;;
4821;SDS011;2425;47.794;13.068;2023-07-16T14:03:39;2.30;;;2.20;;
4821;SDS011;2425;47.794;13.068;2023-07-16T14:06:07;2.10;;;2.10;;
4821;SDS011;2425;47.794;13.068;2023-07-16T14:08:34;1.90;;;1.90;;
4821;SDS011;2425;47.794;13.068;2023-07-16T14:11:01;1.63;;;1.63;;
4821;SDS011;2425;47.794;13.068;2023-07-16T14:13:27;1.87;;;1.87;;
4821;SDS011;2425;47.794;13.068;2023-07-16T14:15:54;1.80;;;1.80;;
4821;SDS011;2425;47.794;13.068;2023-07-16T14:18:21;1.87;;;1.80;;
4821;SDS011;2425;47.794;13.068;2023-07-16T14:20:48;2.50;;;2.07;;
4821;SDS011;2425;47.794;13.068;2023-07-16T14:23:16;2.50;;;1.97;;
4821;SDS011;2425;47.794;13.068;2023-07-16T14:25:42;1.90;;;1.80;;
4821;SDS011;2425;47.794;13.068;2023-07-16T14:28:09;1.60;;;1.60;;
4821;SDS011;2425;47.794;13.068;2023-07-16T14:30:36;1.80;;;1.80;;
4821;SDS011;2425;47.794;13.068;2023-07-16T14:33:03;1.70;;;1.70;;
4821;SDS011;2425;47.794;13.068;2023-07-16T14:35:30;1.63;;;1.60;;
4821;SDS011;2425;47.794;13.068;2023-07-16T14:37:56;1.57;;;1.57;;
4821;SDS011;2425;47.794;13.068;2023-07-16T14:40:25;1.43;;;1.43;;
4821;SDS011;2425;47.794;13.068;2023-07-16T14:42:52;1.60;;;1.60;;
4821;SDS011;2425;47.794;13.068;2023-07-16T14:45:19;2.23;;;2.03;;
4821;SDS011;2425;47.794;13.068;2023-07-16T14:47:45;5.80;;;1.87;;
4821;SDS011;2425;47.794;13.068;2023-07-16T14:50:12;1.63;;;1.63;;
4821;SDS011;2425;47.794;13.068;2023-07-16T14:52:39;1.40;;;1.40;;
4821;SDS011;2425;47.794;13.068;2023-07-16T14:55:05;3.63;;;1.70;;
4821;SDS011;2425;47.794;13.068;2023-07-16T14:57:34;1.77;;;1.67;;
4821;SDS011;2425;47.794;13.068;2023-07-16T15:00:01;2.33;;;2.23;;
4821;SDS011;2425;47.794;13.068;2023-07-16T15:02:30;1.70;;;1.70;;